Terminal Aerodrome Forecast
Issued by NWS Lake Charles, LA

Home | Current Version | Previous Version | Text Only | Print | Product List | Glossary On
Versions: 1 2 3 4 5 6 7 8 9 10 11 12 13 14 15 16 17 18
000
FTUS44 KLCH 252343 AAA
TAFLCH
TAF AMD
KLCH 252343Z 2600/2624 18007KT P6SM SCT120
     FM260200 20003KT P6SM SCT025 SCT150
     FM260700 00000KT 6SM BR SCT003 SCT180
     FM260900 00000KT 3SM MIFG SCT003 SCT180
      TEMPO 2611/2613 1/4SM FG VV001
     FM261500 15003KT P6SM FEW060 BKN150
     FM261900 18005KT P6SM SCT040 BKN130 BKN250=

USA.gov is the U.S. government's official web portal to all federal, state and local government web resources and services.